createdAt,value
2019-02-16T00:04:04.627Z,52.60
2019-02-16T00:06:33.813Z,52.67
2019-02-16T00:09:03.143Z,52.65
2019-02-16T00:11:32.365Z,52.79
2019-02-16T00:14:01.600Z,52.85
2019-02-16T00:16:30.795Z,53.31
2019-02-16T00:19:00.041Z,53.30
2019-02-16T00:21:29.262Z,53.45
2019-02-16T00:23:58.538Z,53.52
2019-02-16T00:26:27.748Z,53.32
2019-02-16T00:28:56.975Z,53.20
2019-02-16T00:31:26.174Z,53.38
2019-02-16T00:33:55.381Z,53.45
2019-02-16T00:36:24.637Z,53.40
2019-02-16T00:38:54.284Z,52.98
2019-02-16T00:41:24.802Z,52.72
2019-02-16T00:43:53.984Z,53.37
2019-02-16T00:46:23.344Z,53.38
2019-02-16T00:48:52.918Z,53.16
2019-02-16T00:51:22.475Z,54.23
2019-02-16T00:53:51.660Z,53.64
2019-02-16T00:58:55.524Z,53.08
2019-02-16T01:01:24.771Z,53.45
2019-02-16T01:03:53.959Z,53.31
2019-02-16T01:06:23.235Z,52.95
2019-02-16T01:08:52.435Z,52.79
2019-02-16T01:11:21.616Z,53.14
2019-02-16T01:13:50.865Z,54.44
2019-02-16T01:16:20.338Z,53.46
2019-02-16T01:18:49.593Z,53.18
2019-02-16T01:21:22.717Z,53.08
2019-02-16T01:23:49.760Z,52.76
2019-02-16T01:26:18.958Z,52.90
2019-02-16T01:28:48.208Z,52.92
2019-02-16T01:31:17.402Z,53.79
2019-02-16T01:33:46.649Z,53.65
2019-02-16T01:36:15.844Z,53.52
2019-02-16T01:38:45.096Z,53.54
2019-02-16T01:41:14.277Z,53.07
2019-02-16T01:43:43.892Z,52.90
2019-02-16T01:46:13.110Z,53.14
2019-02-16T01:48:42.331Z,52.86
2019-02-16T01:51:11.584Z,52.86
2019-02-16T01:53:41.070Z,52.91
2019-02-16T01:56:10.678Z,52.90
2019-02-16T01:58:39.863Z,53.06
2019-02-16T02:01:09.118Z,52.77
2019-02-16T02:03:38.326Z,53.35
2019-02-16T02:06:07.573Z,53.57
2019-02-16T02:08:36.782Z,52.95
2019-02-16T02:13:42.202Z,53.32
2019-02-16T02:16:11.424Z,52.93
2019-02-16T02:18:40.705Z,52.84
2019-02-16T02:21:10.234Z,53.07
2019-02-16T02:23:39.469Z,53.01
2019-02-16T02:26:08.658Z,53.41
2019-02-16T02:28:37.909Z,53.73
2019-02-16T02:31:07.381Z,53.33
2019-02-16T02:33:36.901Z,53.17
2019-02-16T02:36:06.099Z,53.93
2019-02-16T02:38:35.342Z,53.06
2019-02-16T02:41:04.837Z,53.06
2019-02-16T02:43:34.115Z,53.34
2019-02-16T02:46:03.311Z,53.47
2019-02-16T02:48:32.555Z,54.44
2019-02-16T02:51:01.831Z,53.93
2019-02-16T02:53:31.870Z,53.61
2019-02-16T02:56:01.975Z,53.61
2019-02-16T02:58:31.260Z,53.08
2019-02-16T03:01:00.503Z,53.34
2019-02-16T03:03:29.700Z,52.62
2019-02-16T03:05:58.952Z,52.57
2019-02-16T03:08:28.454Z,51.97
2019-02-16T03:10:57.699Z,51.82
2019-02-16T03:13:26.891Z,52.29
2019-02-16T03:15:56.130Z,52.88
2019-02-16T03:18:25.328Z,52.92
2019-02-16T03:20:54.861Z,52.91
2019-02-16T03:23:24.069Z,52.32
2019-02-16T03:26:14.394Z,52.06
2019-02-16T03:29:04.625Z,52.84
2019-02-16T03:31:57.579Z,53.00
2019-02-16T03:34:31.806Z,52.82
2019-02-16T03:37:39.161Z,53.60
2019-02-16T03:43:17.362Z,53.88
2019-02-16T03:45:46.552Z,54.35
2019-02-16T03:48:16.245Z,53.77
2019-02-16T03:50:45.709Z,53.40
2019-02-16T03:53:14.957Z,53.85
2019-02-16T03:55:44.148Z,53.80
2019-02-16T03:58:13.779Z,54.32
2019-02-16T04:00:50.135Z,54.39
2019-02-16T04:03:19.401Z,54.53
2019-02-16T04:05:48.597Z,55.03
2019-02-16T04:08:18.115Z,54.40
2019-02-16T04:10:47.357Z,54.84
2019-02-16T04:13:16.538Z,54.79
2019-02-16T04:15:45.790Z,55.34
2019-02-16T04:18:14.971Z,54.93
2019-02-16T04:20:44.231Z,54.82
2019-02-16T04:23:13.519Z,54.62
2019-02-16T04:25:42.766Z,55.58
2019-02-16T04:28:11.958Z,55.33
2019-02-16T04:30:41.206Z,55.33
2019-02-16T04:33:10.401Z,54.53
2019-02-16T04:35:39.657Z,54.71
2019-02-16T04:38:09.216Z,54.96
2019-02-16T04:40:38.845Z,55.03
2019-02-16T04:43:08.031Z,55.11
2019-02-16T04:45:37.213Z,55.07
2019-02-16T04:48:06.461Z,55.14
2019-02-16T04:50:35.700Z,55.38
2019-02-16T04:53:05.242Z,55.83
2019-02-16T04:55:34.407Z,56.18
2019-02-16T04:58:03.642Z,55.72
2019-02-16T05:00:33.221Z,55.28
2019-02-16T05:03:02.471Z,56.07
2019-02-16T05:05:31.669Z,55.68
2019-02-16T05:08:00.905Z,56.47
2019-02-16T05:10:30.471Z,55.15
2019-02-16T05:12:59.700Z,55.02
2019-02-16T05:15:28.933Z,54.61
2019-02-16T05:17:58.155Z,54.22
2019-02-16T05:20:27.346Z,54.82
2019-02-16T05:22:56.621Z,54.29
2019-02-16T05:25:25.808Z,54.09
2019-02-16T05:27:55.005Z,53.72
2019-02-16T05:30:24.243Z,53.92
2019-02-16T05:32:53.565Z,54.07
2019-02-16T05:35:22.800Z,53.66
2019-02-16T05:37:51.994Z,53.23
2019-02-16T05:40:21.239Z,53.23
2019-02-16T05:42:50.429Z,53.87
2019-02-16T05:45:20.168Z,53.04
2019-02-16T05:47:49.367Z,53.43
2019-02-16T05:50:18.651Z,53.26
2019-02-16T05:52:53.959Z,53.39
2019-02-16T05:55:19.216Z,53.45
2019-02-16T05:57:48.421Z,53.82
2019-02-16T06:03:07.483Z,54.00
2019-02-16T06:05:36.738Z,54.21
2019-02-16T06:08:05.926Z,54.23
2019-02-16T06:10:35.092Z,53.81
2019-02-16T06:13:04.341Z,53.79
2019-02-16T06:15:33.522Z,53.64
2019-02-16T06:18:02.759Z,53.58
2019-02-16T06:20:31.939Z,53.76
2019-02-16T06:23:04.263Z,54.05
2019-02-16T06:25:32.101Z,54.62
2019-02-16T06:28:01.681Z,54.87
2019-02-16T06:30:31.154Z,54.60
2019-02-16T06:36:21.654Z,54.44
2019-02-16T06:38:50.907Z,54.33
2019-02-16T06:41:20.092Z,53.90
2019-02-16T06:43:49.293Z,53.94
2019-02-16T06:46:18.546Z,54.22
2019-02-16T06:48:47.865Z,53.90
2019-02-16T06:51:21.269Z,54.16
2019-02-16T06:53:50.747Z,54.24
2019-02-16T06:56:38.944Z,54.02
2019-02-16T06:59:08.341Z,53.62
2019-02-16T07:01:37.580Z,53.35
2019-02-16T07:04:06.765Z,53.13
2019-02-16T07:06:36.062Z,53.06
2019-02-16T07:09:26.210Z,53.06
2019-02-16T07:11:55.446Z,53.20
2019-02-16T07:14:24.648Z,53.02
2019-02-16T07:17:12.809Z,52.73
2019-02-16T07:19:46.658Z,52.43
2019-02-16T07:22:15.941Z,52.21
2019-02-16T07:24:45.517Z,52.33
2019-02-16T07:27:14.750Z,52.52
2019-02-16T07:29:43.937Z,52.51
2019-02-16T07:32:13.196Z,52.50
2019-02-16T07:34:42.388Z,52.14
2019-02-16T07:37:11.584Z,51.81
2019-02-16T07:39:40.840Z,51.82
2019-02-16T07:42:10.358Z,51.39
2019-02-16T07:45:13.577Z,51.53
2019-02-16T07:48:01.762Z,51.06
2019-02-16T07:50:49.928Z,50.19
2019-02-16T07:53:38.096Z,50.30
2019-02-16T07:56:44.808Z,50.42
2019-02-16T07:59:22.827Z,50.22
2019-02-16T08:02:11.138Z,49.76
2019-02-16T08:04:59.317Z,49.63
2019-02-16T08:07:47.432Z,49.25
2019-02-16T08:10:25.875Z,49.23
2019-02-16T08:13:14.042Z,47.54
2019-02-16T08:16:02.227Z,47.60
2019-02-16T08:18:50.338Z,46.59
2019-02-16T08:21:38.495Z,46.24
2019-02-16T08:24:26.488Z,46.44
2019-02-16T08:27:14.886Z,46.50
2019-02-16T08:30:03.065Z,46.77
2019-02-16T08:33:12.510Z,46.59
2019-02-16T08:36:00.864Z,46.67
2019-02-16T08:38:49.171Z,46.91
2019-02-16T08:41:38.225Z,46.48
2019-02-16T08:44:26.646Z,45.70
2019-02-16T08:47:14.836Z,45.13
2019-02-16T08:50:02.996Z,44.48
2019-02-16T08:52:51.160Z,44.59
2019-02-16T08:55:39.268Z,44.87
2019-02-16T08:58:27.464Z,44.83
2019-02-16T09:01:16.089Z,43.69
2019-02-16T09:04:04.473Z,43.54
2019-02-16T09:06:52.631Z,42.21
2019-02-16T09:09:40.741Z,42.26
2019-02-16T09:12:27.707Z,41.97
2019-02-16T09:15:15.808Z,41.08
2019-02-16T09:18:04.037Z,40.32
2019-02-16T09:20:52.193Z,39.79
2019-02-16T09:23:40.764Z,39.62
2019-02-16T09:26:17.196Z,39.15
2019-02-16T09:29:05.434Z,38.92
2019-02-16T09:31:53.551Z,38.33
2019-02-16T09:34:29.626Z,38.83
2019-02-16T09:37:17.749Z,38.15
2019-02-16T09:40:06.315Z,37.75
2019-02-16T09:42:54.431Z,37.84
2019-02-16T09:45:32.992Z,38.26
2019-02-16T09:48:12.229Z,38.34
2019-02-16T09:51:01.043Z,36.85
2019-02-16T09:53:49.162Z,36.31
2019-02-16T09:56:37.324Z,36.11
2019-02-16T09:59:15.276Z,35.53
2019-02-16T10:02:03.529Z,36.32
2019-02-16T10:04:51.979Z,36.09
2019-02-16T10:07:40.261Z,36.22
2019-02-16T10:10:28.381Z,35.35
2019-02-16T10:13:04.060Z,35.44
2019-02-16T10:15:52.170Z,35.82
2019-02-16T10:18:40.614Z,34.90
2019-02-16T10:21:29.034Z,35.51
2019-02-16T10:24:18.207Z,34.06
2019-02-16T10:26:54.985Z,33.85
2019-02-16T10:29:43.150Z,32.78
2019-02-16T10:32:31.262Z,32.29
2019-02-16T10:35:16.867Z,32.49
2019-02-16T10:38:04.979Z,31.81
2019-02-16T10:40:54.241Z,32.04
2019-02-16T10:43:31.752Z,31.84
2019-02-16T10:46:20.225Z,31.45
2019-02-16T10:49:08.389Z,30.96
2019-02-16T10:51:56.562Z,30.77
2019-02-16T10:54:32.953Z,29.80
2019-02-16T10:57:21.119Z,29.65
2019-02-16T11:00:09.310Z,30.32
2019-02-16T11:02:54.282Z,30.32
2019-02-16T11:05:42.452Z,29.62
2019-02-16T11:08:31.839Z,29.65
2019-02-16T11:11:20.473Z,29.78
2019-02-16T11:14:08.905Z,30.13
2019-02-16T11:16:57.098Z,30.42
2019-02-16T11:19:45.481Z,30.21
2019-02-16T11:22:33.650Z,30.05
2019-02-16T11:25:21.927Z,30.21
2019-02-16T11:28:29.173Z,30.17
2019-02-16T11:31:17.282Z,29.67
2019-02-16T11:33:56.303Z,29.75
2019-02-16T11:36:44.618Z,29.55
2019-02-16T11:39:32.780Z,29.61
2019-02-16T11:42:21.241Z,29.39
2019-02-16T11:45:09.408Z,29.23
2019-02-16T11:47:56.541Z,29.26
2019-02-16T11:50:47.917Z,29.50
2019-02-16T11:53:36.399Z,30.09
2019-02-16T11:56:24.611Z,29.67
2019-02-16T11:59:12.784Z,28.58
2019-02-16T12:01:49.168Z,28.92
2019-02-16T12:04:37.351Z,28.87
2019-02-16T12:07:25.477Z,29.48
2019-02-16T12:10:13.784Z,28.04
2019-02-16T12:12:52.775Z,29.10
2019-02-16T12:15:41.154Z,28.31
2019-02-16T12:18:29.543Z,27.41
2019-02-16T12:21:17.788Z,27.87
2019-02-16T12:24:06.023Z,26.90
2019-02-16T12:26:55.045Z,27.52
2019-02-16T12:29:43.217Z,27.20
2019-02-16T12:32:32.263Z,27.45
2019-02-16T12:35:21.114Z,27.11
2019-02-16T12:38:09.279Z,28.18
2019-02-16T12:40:57.696Z,27.82
2019-02-16T12:43:46.101Z,26.44
2019-02-16T12:46:34.209Z,26.55
2019-02-16T12:49:22.435Z,26.35
2019-02-16T12:52:10.895Z,26.56
2019-02-16T12:54:59.072Z,26.50
2019-02-16T12:57:33.337Z,26.26
2019-02-16T13:00:21.502Z,26.67
2019-02-16T13:03:02.387Z,25.98
2019-02-16T13:05:50.705Z,26.19
2019-02-16T13:08:38.820Z,25.65
2019-02-16T13:11:26.983Z,26.44
2019-02-16T13:14:15.098Z,26.72
2019-02-16T13:17:03.895Z,26.20
2019-02-16T13:19:42.153Z,27.05
2019-02-16T13:22:17.378Z,25.40
2019-02-16T13:25:05.546Z,25.77
2019-02-16T13:27:53.721Z,25.46
2019-02-16T13:30:33.985Z,25.68
2019-02-16T13:33:22.459Z,26.30
2019-02-16T13:36:10.665Z,25.66
2019-02-16T13:38:58.831Z,25.64
2019-02-16T13:41:47.234Z,26.19
2019-02-16T13:44:35.442Z,26.33
2019-02-16T13:47:23.563Z,25.14
2019-02-16T13:53:07.208Z,25.63
2019-02-16T13:55:55.379Z,24.81
2019-02-16T13:58:43.576Z,25.26
2019-02-16T14:01:32.035Z,25.04
2019-02-16T14:04:45.458Z,24.39
2019-02-16T14:07:33.658Z,24.98
2019-02-16T14:10:21.903Z,23.90
2019-02-16T14:12:59.915Z,24.34
2019-02-16T14:15:48.111Z,24.50
2019-02-16T14:18:18.048Z,26.75
2019-02-16T14:20:47.238Z,23.60
2019-02-16T14:23:16.827Z,23.56
2019-02-16T14:25:47.189Z,23.02
2019-02-16T14:28:16.429Z,23.75
2019-02-16T14:30:45.621Z,25.11
2019-02-16T14:33:14.874Z,23.00
2019-02-16T14:35:44.172Z,21.81
2019-02-16T14:38:32.348Z,23.36
2019-02-16T14:41:01.552Z,23.93
2019-02-16T14:43:30.785Z,22.49
2019-02-16T14:45:59.965Z,22.73
2019-02-16T14:48:29.201Z,23.62
2019-02-16T14:50:58.787Z,21.54
2019-02-16T14:53:28.028Z,19.99
2019-02-16T14:55:57.215Z,20.42
2019-02-16T14:58:26.389Z,19.94
2019-02-16T15:00:57.006Z,18.89
2019-02-16T15:03:26.542Z,17.40
2019-02-16T15:05:55.777Z,15.98
2019-02-16T15:08:24.969Z,15.19
2019-02-16T15:10:54.306Z,13.96
2019-02-16T15:13:23.818Z,12.87
2019-02-16T15:15:53.054Z,12.08
2019-02-16T15:18:22.248Z,11.40
2019-02-16T15:20:51.488Z,11.00
2019-02-16T15:23:20.673Z,11.25
2019-02-16T15:29:11.819Z,10.39
2019-02-16T15:34:36.391Z,9.82
2019-02-16T15:37:05.696Z,9.65
2019-02-16T15:39:34.874Z,9.56
2019-02-16T15:45:06.658Z,9.81
2019-02-16T15:47:35.943Z,10.68
2019-02-16T15:50:05.653Z,12.70
2019-02-16T15:52:34.888Z,14.72
2019-02-16T15:58:22.739Z,19.05
2019-02-16T16:00:52.358Z,21.32
2019-02-16T16:09:50.499Z,24.81
2019-02-16T16:12:44.593Z,25.51
2019-02-16T16:15:41.531Z,26.34
2019-02-16T16:18:22.896Z,26.94
2019-02-16T16:21:11.078Z,27.25
2019-02-16T16:23:59.215Z,27.87
2019-02-16T16:26:48.034Z,27.81
2019-02-16T16:29:36.166Z,27.95
2019-02-16T16:32:15.321Z,28.25
2019-02-16T16:35:03.451Z,28.66
2019-02-16T16:37:53.070Z,29.15
2019-02-16T16:40:42.086Z,29.80
2019-02-16T16:43:30.966Z,29.91
2019-02-16T16:46:19.288Z,30.52
2019-02-16T16:49:07.770Z,30.69
2019-02-16T16:51:54.481Z,30.75
2019-02-16T16:54:42.665Z,31.32
2019-02-16T16:57:30.779Z,31.50
2019-02-16T17:00:19.558Z,31.89
2019-02-16T17:03:08.156Z,31.50
2019-02-16T17:05:56.925Z,31.71
2019-02-16T17:08:45.428Z,32.03
2019-02-16T17:11:33.598Z,32.25
2019-02-16T17:14:21.778Z,32.57
2019-02-16T17:17:09.971Z,32.88
2019-02-16T17:19:58.385Z,33.92
2019-02-16T17:22:46.851Z,34.60
2019-02-16T17:25:35.041Z,33.90
2019-02-16T17:28:23.159Z,34.35
2019-02-16T17:31:11.328Z,34.27
2019-02-16T17:33:59.448Z,34.96
2019-02-16T17:36:47.640Z,35.66
2019-02-16T17:39:35.766Z,36.18
2019-02-16T17:42:14.968Z,36.60
2019-02-16T17:45:03.310Z,36.94
2019-02-16T17:47:52.070Z,36.71
2019-02-16T17:50:40.580Z,37.04
2019-02-16T17:53:28.773Z,37.72
2019-02-16T17:56:17.240Z,37.57
2019-02-16T17:59:05.469Z,37.55
2019-02-16T18:01:47.379Z,37.34
2019-02-16T18:04:35.561Z,37.50
2019-02-16T18:07:23.699Z,38.02
2019-02-16T18:10:11.882Z,37.26
2019-02-16T18:18:45.477Z,36.98
2019-02-16T18:21:33.616Z,37.58
2019-02-16T18:24:21.796Z,37.88
2019-02-16T18:30:01.038Z,38.68
2019-02-16T18:32:49.181Z,38.34
2019-02-16T18:38:38.999Z,38.29
2019-02-16T18:41:27.156Z,38.36
2019-02-16T18:44:14.696Z,38.34
2019-02-16T18:47:02.839Z,38.59
2019-02-16T18:49:51.808Z,38.25
2019-02-16T18:52:39.921Z,38.23
2019-02-16T18:55:28.120Z,37.92
2019-02-16T18:58:16.289Z,38.46
2019-02-16T19:01:04.749Z,38.45
2019-02-16T19:03:52.832Z,38.13
2019-02-16T19:06:33.481Z,38.34
2019-02-16T19:09:21.913Z,38.89
2019-02-16T19:12:10.107Z,38.75
2019-02-16T19:14:58.259Z,39.25
2019-02-16T19:17:46.441Z,39.42
2019-02-16T19:20:34.573Z,38.74
2019-02-16T19:23:23.028Z,38.99
2019-02-16T19:26:11.441Z,38.08
2019-02-16T19:29:00.072Z,37.49
2019-02-16T19:31:49.256Z,37.60
2019-02-16T19:34:37.566Z,36.60
2019-02-16T19:37:25.748Z,36.31
2019-02-16T19:40:13.856Z,36.21
2019-02-16T19:43:02.037Z,36.23
2019-02-16T19:45:50.157Z,35.78
2019-02-16T19:48:38.346Z,36.12
2019-02-16T19:51:26.597Z,36.07
2019-02-16T19:54:14.801Z,35.93
2019-02-16T19:57:03.491Z,36.77
2019-02-16T19:59:37.843Z,36.66
2019-02-16T20:02:26.014Z,37.24
2019-02-16T20:05:14.524Z,36.92
2019-02-16T20:08:02.635Z,37.00
2019-02-16T20:10:39.008Z,37.06
2019-02-16T20:13:27.127Z,37.09
2019-02-16T20:16:15.297Z,36.76
2019-02-16T20:19:03.414Z,37.13
2019-02-16T20:21:52.322Z,37.24
2019-02-16T20:24:41.792Z,37.30
2019-02-16T20:27:37.107Z,37.42
2019-02-16T20:30:20.295Z,37.49
2019-02-16T20:33:08.678Z,37.84
2019-02-16T20:35:56.793Z,37.87
2019-02-16T20:38:45.001Z,38.12
2019-02-16T20:41:33.540Z,38.16
2019-02-16T20:44:22.116Z,38.24
2019-02-16T20:47:10.222Z,38.42
2019-02-16T20:49:59.153Z,38.51
2019-02-16T20:52:34.694Z,38.66
2019-02-16T20:55:23.160Z,38.81
2019-02-16T20:58:01.561Z,38.95
2019-02-16T21:00:42.930Z,39.05
2019-02-16T21:03:31.306Z,39.07
2019-02-16T21:06:19.482Z,39.15
2019-02-16T21:09:07.608Z,39.21
2019-02-16T21:11:56.159Z,39.19
2019-02-16T21:14:44.264Z,39.38
2019-02-16T21:17:32.434Z,39.10
2019-02-16T21:20:20.534Z,39.19
2019-02-16T21:23:08.703Z,38.97
2019-02-16T21:25:56.818Z,38.97
2019-02-16T21:28:45.387Z,38.92
2019-02-16T21:31:33.492Z,38.84
2019-02-16T21:34:21.659Z,38.66
2019-02-16T21:37:09.834Z,38.43
2019-02-16T21:39:58.237Z,38.42
2019-02-16T21:42:46.455Z,38.53
2019-02-16T21:45:34.539Z,38.58
2019-02-16T21:48:22.709Z,38.82
2019-02-16T21:51:11.167Z,38.75
2019-02-16T21:53:59.347Z,38.80
2019-02-16T21:56:47.483Z,38.93
2019-02-16T21:59:35.963Z,39.43
2019-02-16T22:02:24.099Z,39.68
2019-02-16T22:05:12.270Z,39.49
2019-02-16T22:08:00.386Z,39.37
2019-02-16T22:10:48.550Z,38.99
2019-02-16T22:13:17.739Z,39.09
2019-02-16T22:15:46.973Z,38.85
2019-02-16T22:18:16.582Z,38.96
2019-02-16T22:20:45.807Z,38.99
2019-02-16T22:23:15.058Z,39.02
2019-02-16T22:25:44.294Z,39.28
2019-02-16T22:28:18.669Z,39.09
2019-02-16T22:30:44.809Z,39.12
2019-02-16T22:33:14.289Z,39.06
2019-02-16T22:36:22.987Z,39.02
2019-02-16T22:38:52.159Z,38.97
2019-02-16T22:41:21.403Z,38.90
2019-02-16T22:43:50.592Z,38.79
2019-02-16T22:46:19.772Z,39.01
2019-02-16T22:48:49.002Z,38.77
2019-02-16T22:51:18.604Z,38.97
2019-02-16T22:53:48.246Z,39.13
2019-02-16T22:56:17.429Z,39.27
2019-02-16T22:58:46.683Z,39.10
2019-02-16T23:01:15.956Z,39.26
2019-02-16T23:03:45.185Z,39.62
2019-02-16T23:06:14.430Z,39.16
2019-02-16T23:08:44.014Z,39.05
2019-02-16T23:11:13.522Z,39.00
2019-02-16T23:13:42.749Z,39.32
2019-02-16T23:16:11.945Z,39.47
2019-02-16T23:18:41.524Z,39.60
2019-02-16T23:21:10.703Z,39.51
2019-02-16T23:23:39.885Z,39.43
2019-02-16T23:26:09.113Z,40.78
2019-02-16T23:28:39.185Z,39.82
2019-02-16T23:31:09.250Z,39.99
2019-02-16T23:33:38.433Z,39.46
2019-02-16T23:36:07.658Z,39.22
2019-02-16T23:38:36.841Z,40.34
2019-02-16T23:41:06.512Z,40.26
2019-02-16T23:43:37.288Z,39.62
2019-02-16T23:46:06.532Z,39.58
2019-02-16T23:48:36.089Z,39.92
2019-02-16T23:51:05.386Z,40.36
2019-02-16T23:53:34.588Z,40.53
2019-02-16T23:56:03.824Z,40.61
2019-02-16T23:58:33.016Z,39.86
